sensor_id;sensor_type;location;lat;lon;timestamp;pressure;altitude;pressure_sealevel;temperature;humidity
43846;BME280;32485;51.112;13.640;2022-07-23T00:04:05;100268.84;;;22.01;62.14
43846;BME280;32485;51.112;13.640;2022-07-23T00:06:32;100277.47;;;22.03;62.19
43846;BME280;32485;51.112;13.640;2022-07-23T00:08:59;100264.50;;;22.04;62.27
43846;BME280;32485;51.112;13.640;2022-07-23T00:11:26;100261.38;;;22.05;62.52
43846;BME280;32485;51.112;13.640;2022-07-23T00:13:53;100265.28;;;22.04;62.44
43846;BME280;32485;51.112;13.640;2022-07-23T00:16:23;100261.38;;;22.05;62.57
43846;BME280;32485;51.112;13.640;2022-07-23T00:18:50;100263.72;;;22.07;62.64
43846;BME280;32485;51.112;13.640;2022-07-23T00:21:19;100268.81;;;22.08;62.55
43846;BME280;32485;51.112;13.640;2022-07-23T00:23:46;100269.22;;;22.07;62.86
43846;BME280;32485;51.112;13.640;2022-07-23T00:26:13;100269.22;;;22.03;63.03
43846;BME280;32485;51.112;13.640;2022-07-23T00:28:40;100267.69;;;21.92;63.61
43846;BME280;32485;51.112;13.640;2022-07-23T00:31:07;100258.25;;;21.82;64.25
43846;BME280;32485;51.112;13.640;2022-07-23T00:33:34;100266.13;;;21.76;64.66
43846;BME280;32485;51.112;13.640;2022-07-23T00:36:01;100256.28;;;21.68;65.10
43846;BME280;32485;51.112;13.640;2022-07-23T00:38:30;100255.91;;;21.59;65.48
43846;BME280;32485;51.112;13.640;2022-07-23T00:40:57;100256.69;;;21.59;65.25
43846;BME280;32485;51.112;13.640;2022-07-23T00:43:24;100251.19;;;21.55;64.86
43846;BME280;32485;51.112;13.640;2022-07-23T00:45:51;100259.06;;;21.53;65.07
43846;BME280;32485;51.112;13.640;2022-07-23T00:48:19;100256.72;;;21.52;65.15
43846;BME280;32485;51.112;13.640;2022-07-23T00:50:46;100257.84;;;21.47;65.42
43846;BME280;32485;51.112;13.640;2022-07-23T00:53:16;100257.44;;;21.38;65.92
43846;BME280;32485;51.112;13.640;2022-07-23T00:55:45;100254.28;;;21.21;66.44
43846;BME280;32485;51.112;13.640;2022-07-23T00:58:13;100239.34;;;21.04;67.15
43846;BME280;32485;51.112;13.640;2022-07-23T01:00:40;100247.19;;;21.02;67.41
43846;BME280;32485;51.112;13.640;2022-07-23T01:03:07;100236.59;;;21.12;66.73
43846;BME280;32485;51.112;13.640;2022-07-23T01:05:34;100236.59;;;21.08;67.30
43846;BME280;32485;51.112;13.640;2022-07-23T01:08:01;100237.00;;;21.17;66.74
43846;BME280;32485;51.112;13.640;2022-07-23T01:10:28;100233.09;;;21.26;66.48
43846;BME280;32485;51.112;13.640;2022-07-23T01:13:00;100227.19;;;21.16;66.82
43846;BME280;32485;51.112;13.640;2022-07-23T01:15:29;100227.97;;;21.20;66.58
43846;BME280;32485;51.112;13.640;2022-07-23T01:17:56;100226.81;;;21.29;66.50
43846;BME280;32485;51.112;13.640;2022-07-23T01:20:23;100222.47;;;21.35;66.47
43846;BME280;32485;51.112;13.640;2022-07-23T01:22:52;100222.91;;;21.41;66.41
43846;BME280;32485;51.112;13.640;2022-07-23T01:25:20;100218.94;;;21.42;66.11
43846;BME280;32485;51.112;13.640;2022-07-23T01:27:47;100215.03;;;21.46;65.94
43846;BME280;32485;51.112;13.640;2022-07-23T01:30:15;100202.47;;;21.45;65.87
43846;BME280;32485;51.112;13.640;2022-07-23T01:32:42;100189.91;;;21.41;66.56
43846;BME280;32485;51.112;13.640;2022-07-23T01:35:10;100187.16;;;21.37;66.75
43846;BME280;32485;51.112;13.640;2022-07-23T01:37:37;100177.34;;;21.36;66.26
43846;BME280;32485;51.112;13.640;2022-07-23T01:40:07;100190.69;;;21.37;66.39
43846;BME280;32485;51.112;13.640;2022-07-23T01:42:34;100173.41;;;21.30;66.88
43846;BME280;32485;51.112;13.640;2022-07-23T01:45:03;100177.34;;;21.29;66.69
43846;BME280;32485;51.112;13.640;2022-07-23T01:47:30;100163.97;;;21.23;66.97
43846;BME280;32485;51.112;13.640;2022-07-23T01:49:58;100157.34;;;21.21;67.31
43846;BME280;32485;51.112;13.640;2022-07-23T01:52:25;100139.66;;;21.04;67.15
43846;BME280;32485;51.112;13.640;2022-07-23T01:54:52;100160.09;;;21.21;66.83
43846;BME280;32485;51.112;13.640;2022-07-23T01:57:20;100162.81;;;21.17;67.11
43846;BME280;32485;51.112;13.640;2022-07-23T01:59:47;100163.59;;;21.14;67.28
43846;BME280;32485;51.112;13.640;2022-07-23T02:02:14;100164.78;;;21.13;67.45
43846;BME280;32485;51.112;13.640;2022-07-23T02:04:41;100171.06;;;21.07;67.71
43846;BME280;32485;51.112;13.640;2022-07-23T02:07:08;100165.16;;;20.94;68.20
43846;BME280;32485;51.112;13.640;2022-07-23T02:09:35;100164.75;;;20.74;69.04
43846;BME280;32485;51.112;13.640;2022-07-23T02:12:03;100156.88;;;20.65;69.14
43846;BME280;32485;51.112;13.640;2022-07-23T02:14:32;100156.03;;;20.53;69.75
43846;BME280;32485;51.112;13.640;2022-07-23T02:16:59;100156.81;;;20.50;70.10
43846;BME280;32485;51.112;13.640;2022-07-23T02:19:27;100154.84;;;20.47;69.96
43846;BME280;32485;51.112;13.640;2022-07-23T02:21:54;100152.09;;;20.47;70.26
43846;BME280;32485;51.112;13.640;2022-07-23T02:24:21;100155.22;;;20.39;70.72
43846;BME280;32485;51.112;13.640;2022-07-23T02:26:49;100161.44;;;20.25;71.18
43846;BME280;32485;51.112;13.640;2022-07-23T02:29:16;100159.88;;;20.20;71.39
43846;BME280;32485;51.112;13.640;2022-07-23T02:31:44;100165.69;;;20.11;71.71
43846;BME280;32485;51.112;13.640;2022-07-23T02:34:12;100166.47;;;20.08;72.01
43846;BME280;32485;51.112;13.640;2022-07-23T02:36:39;100170.75;;;20.02;72.32
43846;BME280;32485;51.112;13.640;2022-07-23T02:39:06;100177.81;;;20.07;71.98
43846;BME280;32485;51.112;13.640;2022-07-23T02:41:33;100164.06;;;20.03;72.14
43846;BME280;32485;51.112;13.640;2022-07-23T02:44:01;100142.53;;;20.05;71.94
43846;BME280;32485;51.112;13.640;2022-07-23T02:46:28;100133.97;;;20.10;71.64
43846;BME280;32485;51.112;13.640;2022-07-23T02:48:56;100125.34;;;20.19;71.57
43846;BME280;32485;51.112;13.640;2022-07-23T02:51:23;100118.31;;;20.25;71.51
43846;BME280;32485;51.112;13.640;2022-07-23T02:53:50;100117.16;;;20.30;70.81
43846;BME280;32485;51.112;13.640;2022-07-23T02:56:17;100119.16;;;20.40;70.46
43846;BME280;32485;51.112;13.640;2022-07-23T02:58:44;100120.31;;;20.46;70.44
43846;BME280;32485;51.112;13.640;2022-07-23T03:01:11;100128.59;;;20.50;70.37
43846;BME280;32485;51.112;13.640;2022-07-23T03:03:38;100137.97;;;20.49;70.33
43846;BME280;32485;51.112;13.640;2022-07-23T03:06:07;100144.22;;;20.42;71.02
43846;BME280;32485;51.112;13.640;2022-07-23T03:08:34;100143.84;;;20.40;70.70
43846;BME280;32485;51.112;13.640;2022-07-23T03:11:01;100138.72;;;20.28;71.44
43846;BME280;32485;51.112;13.640;2022-07-23T03:13:28;100133.22;;;20.28;71.14
43846;BME280;32485;51.112;13.640;2022-07-23T03:15:56;100130.88;;;20.30;71.29
43846;BME280;32485;51.112;13.640;2022-07-23T03:18:23;100128.94;;;20.37;71.04
43846;BME280;32485;51.112;13.640;2022-07-23T03:20:50;100136.41;;;20.44;70.77
43846;BME280;32485;51.112;13.640;2022-07-23T03:23:18;100134.84;;;20.50;70.67
43846;BME280;32485;51.112;13.640;2022-07-23T03:25:45;100127.44;;;20.58;70.36
43846;BME280;32485;51.112;13.640;2022-07-23T03:28:14;100116.81;;;20.60;69.95
43846;BME280;32485;51.112;13.640;2022-07-23T03:30:41;100123.13;;;20.61;70.07
43846;BME280;32485;51.112;13.640;2022-07-23T03:33:09;100131.75;;;20.59;70.30
43846;BME280;32485;51.112;13.640;2022-07-23T03:35:36;100124.69;;;20.58;70.51
43846;BME280;32485;51.112;13.640;2022-07-23T03:38:03;100121.53;;;20.60;70.17
43846;BME280;32485;51.112;13.640;2022-07-23T03:40:31;100125.47;;;20.62;70.08
43846;BME280;32485;51.112;13.640;2022-07-23T03:42:58;100118.81;;;20.67;70.21
43846;BME280;32485;51.112;13.640;2022-07-23T03:47:52;100119.19;;;20.62;70.00
43846;BME280;32485;51.112;13.640;2022-07-23T03:50:20;100116.81;;;20.60;70.19
43846;BME280;32485;51.112;13.640;2022-07-23T03:52:47;100120.72;;;20.52;70.64
43846;BME280;32485;51.112;13.640;2022-07-23T03:55:14;100120.72;;;20.45;70.93
43846;BME280;32485;51.112;13.640;2022-07-23T03:57:43;100126.19;;;20.34;71.57
43846;BME280;32485;51.112;13.640;2022-07-23T04:00:12;100104.22;;;20.23;71.79
43846;BME280;32485;51.112;13.640;2022-07-23T04:02:40;100114.00;;;20.20;72.27
43846;BME280;32485;51.112;13.640;2022-07-23T04:05:08;100093.94;;;20.02;71.97
43846;BME280;32485;51.112;13.640;2022-07-23T04:07:35;100115.50;;;20.07;73.06
43846;BME280;32485;51.112;13.640;2022-07-23T04:10:03;100108.84;;;20.08;73.06
43846;BME280;32485;51.112;13.640;2022-07-23T04:12:30;100126.88;;;20.09;73.03
43846;BME280;32485;51.112;13.640;2022-07-23T04:14:58;100143.00;;;20.14;72.62
43846;BME280;32485;51.112;13.640;2022-07-23T04:17:25;100131.59;;;20.12;72.72
43846;BME280;32485;51.112;13.640;2022-07-23T04:19:53;100119.06;;;20.15;72.39
43846;BME280;32485;51.112;13.640;2022-07-23T04:22:21;100133.16;;;20.10;72.53
43846;BME280;32485;51.112;13.640;2022-07-23T04:24:48;100140.63;;;20.16;72.21
43846;BME280;32485;51.112;13.640;2022-07-23T04:27:16;100136.28;;;20.08;72.67
43846;BME280;32485;51.112;13.640;2022-07-23T04:29:43;100148.41;;;20.03;72.68
43846;BME280;32485;51.112;13.640;2022-07-23T04:32:11;100146.41;;;19.97;72.73
43846;BME280;32485;51.112;13.640;2022-07-23T04:34:38;100130.75;;;19.94;73.03
43846;BME280;32485;51.112;13.640;2022-07-23T04:37:05;100122.09;;;19.92;73.09
43846;BME280;32485;51.112;13.640;2022-07-23T04:39:32;100115.47;;;19.96;72.68
43846;BME280;32485;51.112;13.640;2022-07-23T04:42:00;100109.63;;;20.05;72.34
43846;BME280;32485;51.112;13.640;2022-07-23T04:44:27;100117.88;;;20.12;72.06
43846;BME280;32485;51.112;13.640;2022-07-23T04:46:54;100116.75;;;20.20;71.58
43846;BME280;32485;51.112;13.640;2022-07-23T04:49:23;100114.78;;;20.25;71.71
43846;BME280;32485;51.112;13.640;2022-07-23T04:51:50;100112.09;;;20.39;71.34
43846;BME280;32485;51.112;13.640;2022-07-23T04:54:17;100109.75;;;20.45;70.84
43846;BME280;32485;51.112;13.640;2022-07-23T04:56:44;100103.88;;;20.57;70.29
43846;BME280;32485;51.112;13.640;2022-07-23T04:59:11;100104.31;;;20.66;70.22
43846;BME280;32485;51.112;13.640;2022-07-23T05:01:38;100112.56;;;20.70;69.74
43846;BME280;32485;51.112;13.640;2022-07-23T05:04:05;100116.09;;;20.74;69.57
43846;BME280;32485;51.112;13.640;2022-07-23T05:06:33;100129.44;;;20.79;69.37
43846;BME280;32485;51.112;13.640;2022-07-23T05:09:00;100128.28;;;20.80;69.61
43846;BME280;32485;51.112;13.640;2022-07-23T05:11:28;100126.69;;;20.76;69.90
43846;BME280;32485;51.112;13.640;2022-07-23T05:13:55;100132.97;;;20.73;69.88
43846;BME280;32485;51.112;13.640;2022-07-23T05:16:22;100128.63;;;20.61;70.24
43846;BME280;32485;51.112;13.640;2022-07-23T05:18:49;100142.69;;;20.45;70.92
43846;BME280;32485;51.112;13.640;2022-07-23T05:21:16;100142.66;;;20.37;71.33
43846;BME280;32485;51.112;13.640;2022-07-23T05:23:44;100153.59;;;20.27;71.86
43846;BME280;32485;51.112;13.640;2022-07-23T05:26:11;100146.16;;;20.20;72.18
43846;BME280;32485;51.112;13.640;2022-07-23T05:28:39;100150.41;;;20.10;72.67
43846;BME280;32485;51.112;13.640;2022-07-23T05:31:06;100150.00;;;20.08;72.86
43846;BME280;32485;51.112;13.640;2022-07-23T05:33:33;100168.00;;;20.06;73.24
43846;BME280;32485;51.112;13.640;2022-07-23T05:36:01;100166.81;;;19.99;73.17
43846;BME280;32485;51.112;13.640;2022-07-23T05:38:29;100176.19;;;19.95;73.40
43846;BME280;32485;51.112;13.640;2022-07-23T05:40:58;100205.97;;;19.96;73.60
43846;BME280;32485;51.112;13.640;2022-07-23T05:43:26;100199.66;;;19.89;73.83
43846;BME280;32485;51.112;13.640;2022-07-23T05:45:53;100191.47;;;19.92;73.66
43846;BME280;32485;51.112;13.640;2022-07-23T05:48:20;100187.91;;;19.92;73.15
43846;BME280;32485;51.112;13.640;2022-07-23T05:50:48;100202.81;;;19.91;72.95
43846;BME280;32485;51.112;13.640;2022-07-23T05:53:15;100208.69;;;19.89;73.02
43846;BME280;32485;51.112;13.640;2022-07-23T05:55:42;100207.44;;;19.79;73.49
43846;BME280;32485;51.112;13.640;2022-07-23T05:58:10;100219.50;;;19.71;73.80
43846;BME280;32485;51.112;13.640;2022-07-23T06:00:38;100230.00;;;19.62;74.23
43846;BME280;32485;51.112;13.640;2022-07-23T06:03:05;100235.44;;;19.55;74.57
43846;BME280;32485;51.112;13.640;2022-07-23T06:05:34;100231.53;;;19.56;74.49
43846;BME280;32485;51.112;13.640;2022-07-23T06:08:01;100235.00;;;19.49;74.65
43846;BME280;32485;51.112;13.640;2022-07-23T06:10:28;100222.81;;;19.43;74.71
43846;BME280;32485;51.112;13.640;2022-07-23T06:12:55;100224.38;;;19.40;74.89
43846;BME280;32485;51.112;13.640;2022-07-23T06:15:24;100233.75;;;19.39;74.73
43846;BME280;32485;51.112;13.640;2022-07-23T06:17:51;100232.09;;;19.31;74.83
43846;BME280;32485;51.112;13.640;2022-07-23T06:20:18;100239.50;;;19.27;74.82
43846;BME280;32485;51.112;13.640;2022-07-23T06:22:45;100255.53;;;19.25;74.88
43846;BME280;32485;51.112;13.640;2022-07-23T06:25:12;100260.59;;;19.23;74.57
43846;BME280;32485;51.112;13.640;2022-07-23T06:27:42;100270.34;;;19.20;74.53
43846;BME280;32485;51.112;13.640;2022-07-23T06:30:12;100269.63;;;19.27;74.07
43846;BME280;32485;51.112;13.640;2022-07-23T06:32:43;100267.00;;;19.38;73.55
43846;BME280;32485;51.112;13.640;2022-07-23T06:35:10;100280.38;;;19.46;73.18
43846;BME280;32485;51.112;13.640;2022-07-23T06:37:37;100283.25;;;19.61;72.31
43846;BME280;32485;51.112;13.640;2022-07-23T06:40:05;100277.81;;;19.64;71.79
43846;BME280;32485;51.112;13.640;2022-07-23T06:42:32;100270.81;;;19.74;71.28
43846;BME280;32485;51.112;13.640;2022-07-23T06:45:02;100256.03;;;19.82;70.87
43846;BME280;32485;51.112;13.640;2022-07-23T06:47:29;100238.81;;;19.85;70.58
43846;BME280;32485;51.112;13.640;2022-07-23T06:49:58;100249.91;;;20.07;70.12
43846;BME280;32485;51.112;13.640;2022-07-23T06:52:25;100235.16;;;20.33;69.68
43846;BME280;32485;51.112;13.640;2022-07-23T06:54:52;100236.84;;;20.60;68.62
43846;BME280;32485;51.112;13.640;2022-07-23T06:57:20;100252.59;;;20.70;66.79
43846;BME280;32485;51.112;13.640;2022-07-23T06:59:47;100258.50;;;20.83;65.91
43846;BME280;32485;51.112;13.640;2022-07-23T07:02:14;100238.16;;;20.95;65.81
43846;BME280;32485;51.112;13.640;2022-07-23T07:04:41;100215.41;;;21.05;65.11
43846;BME280;32485;51.112;13.640;2022-07-23T07:07:10;100221.28;;;21.18;64.66
43846;BME280;32485;51.112;13.640;2022-07-23T07:09:37;100233.88;;;21.26;63.67
43846;BME280;32485;51.112;13.640;2022-07-23T07:12:05;100239.75;;;21.32;63.52
43846;BME280;32485;51.112;13.640;2022-07-23T07:14:32;100236.63;;;21.37;62.52
43846;BME280;32485;51.112;13.640;2022-07-23T07:16:59;100242.91;;;21.34;63.10
43846;BME280;32485;51.112;13.640;2022-07-23T07:19:26;100251.16;;;21.30;63.11
43846;BME280;32485;51.112;13.640;2022-07-23T07:21:53;100236.63;;;21.33;63.33
43846;BME280;32485;51.112;13.640;2022-07-23T07:24:22;100228.78;;;21.43;63.72
43846;BME280;32485;51.112;13.640;2022-07-23T07:26:49;100240.97;;;21.45;62.80
43846;BME280;32485;51.112;13.640;2022-07-23T07:29:16;100236.63;;;21.51;62.11
43846;BME280;32485;51.112;13.640;2022-07-23T07:31:43;100246.88;;;21.54;62.64
43846;BME280;32485;51.112;13.640;2022-07-23T07:34:10;100231.94;;;21.63;62.13
43846;BME280;32485;51.112;13.640;2022-07-23T07:36:37;100233.13;;;21.65;61.82
43846;BME280;32485;51.112;13.640;2022-07-23T07:39:05;100235.06;;;21.79;61.01
43846;BME280;32485;51.112;13.640;2022-07-23T07:41:33;100238.19;;;21.92;61.13
43846;BME280;32485;51.112;13.640;2022-07-23T07:44:01;100241.31;;;22.12;60.37
43846;BME280;32485;51.112;13.640;2022-07-23T07:46:28;100242.44;;;22.25;60.25
43846;BME280;32485;51.112;13.640;2022-07-23T07:48:56;100236.50;;;22.45;59.52
43846;BME280;32485;51.112;13.640;2022-07-23T07:51:23;100226.53;;;22.73;59.01
43846;BME280;32485;51.112;13.640;2022-07-23T07:53:50;100213.81;;;22.93;58.95
43846;BME280;32485;51.112;13.640;2022-07-23T07:56:17;100212.91;;;23.11;57.29
43846;BME280;32485;51.112;13.640;2022-07-23T07:58:46;100209.34;;;23.14;56.75
43846;BME280;32485;51.112;13.640;2022-07-23T08:01:13;100206.59;;;23.18;56.50
43846;BME280;32485;51.112;13.640;2022-07-23T08:03:40;100214.03;;;23.24;56.71
43846;BME280;32485;51.112;13.640;2022-07-23T08:06:07;100210.84;;;23.26;56.10
43846;BME280;32485;51.112;13.640;2022-07-23T08:08:34;100209.53;;;23.41;56.13
43846;BME280;32485;51.112;13.640;2022-07-23T08:11:01;100208.66;;;23.52;56.05
43846;BME280;32485;51.112;13.640;2022-07-23T08:13:28;100213.28;;;23.62;55.51
43846;BME280;32485;51.112;13.640;2022-07-23T08:15:57;100207.75;;;23.66;55.46
43846;BME280;32485;51.112;13.640;2022-07-23T08:18:24;100209.31;;;23.67;55.82
43846;BME280;32485;51.112;13.640;2022-07-23T08:20:51;100203.47;;;23.61;55.56
43846;BME280;32485;51.112;13.640;2022-07-23T08:23:18;100207.66;;;23.73;55.24
43846;BME280;32485;51.112;13.640;2022-07-23T08:25:46;100209.91;;;23.85;55.59
43846;BME280;32485;51.112;13.640;2022-07-23T08:28:14;100203.56;;;23.92;55.28
43846;BME280;32485;51.112;13.640;2022-07-23T08:30:43;100193.28;;;23.96;54.03
43846;BME280;32485;51.112;13.640;2022-07-23T08:33:15;100191.00;;;23.87;54.77
43846;BME280;32485;51.112;13.640;2022-07-23T08:35:45;100191.78;;;23.84;55.03
43846;BME280;32485;51.112;13.640;2022-07-23T08:38:15;100197.31;;;23.84;55.63
43846;BME280;32485;51.112;13.640;2022-07-23T08:40:44;100196.47;;;23.91;55.96
43846;BME280;32485;51.112;13.640;2022-07-23T08:43:14;100200.69;;;24.03;55.04
43846;BME280;32485;51.112;13.640;2022-07-23T08:45:45;100199.81;;;24.09;54.55
43846;BME280;32485;51.112;13.640;2022-07-23T08:48:16;100210.34;;;24.18;53.99
43846;BME280;32485;51.112;13.640;2022-07-23T08:50:46;100205.63;;;24.19;54.02
43846;BME280;32485;51.112;13.640;2022-07-23T08:53:15;100204.84;;;24.18;54.24
43846;BME280;32485;51.112;13.640;2022-07-23T08:55:44;100218.63;;;24.22;55.74
43846;BME280;32485;51.112;13.640;2022-07-23T08:58:12;100213.22;;;24.42;55.43
43846;BME280;32485;51.112;13.640;2022-07-23T09:00:39;100209.84;;;24.61;54.16
43846;BME280;32485;51.112;13.640;2022-07-23T09:03:06;100201.72;;;24.78;53.32
43846;BME280;32485;51.112;13.640;2022-07-23T09:05:35;100219.50;;;24.77;52.23
43846;BME280;32485;51.112;13.640;2022-07-23T09:08:08;100205.78;;;24.70;52.28
43846;BME280;32485;51.112;13.640;2022-07-23T09:10:51;100218.53;;;24.63;52.59
43846;BME280;32485;51.112;13.640;2022-07-23T09:13:37;100218.53;;;24.63;52.53
43846;BME280;32485;51.112;13.640;2022-07-23T09:16:07;100230.31;;;24.68;53.12
43846;BME280;32485;51.112;13.640;2022-07-23T09:18:42;100216.38;;;24.75;52.67
43846;BME280;32485;51.112;13.640;2022-07-23T09:21:21;100203.41;;;24.72;52.25
43846;BME280;32485;51.112;13.640;2022-07-23T09:23:53;100207.47;;;24.91;52.23
43846;BME280;32485;51.112;13.640;2022-07-23T09:26:27;100205.50;;;25.15;52.37
43846;BME280;32485;51.112;13.640;2022-07-23T09:29:04;100204.22;;;25.47;51.73
43846;BME280;32485;51.112;13.640;2022-07-23T09:31:41;100201.81;;;25.73;49.90
43846;BME280;32485;51.112;13.640;2022-07-23T09:34:14;100217.16;;;25.97;48.89
43846;BME280;32485;51.112;13.640;2022-07-23T09:36:43;100222.84;;;25.90;48.79
43846;BME280;32485;51.112;13.640;2022-07-23T09:39:12;100222.97;;;25.83;48.69
43846;BME280;32485;51.112;13.640;2022-07-23T09:41:42;100225.38;;;25.81;49.13
43846;BME280;32485;51.112;13.640;2022-07-23T09:44:13;100231.84;;;25.74;49.69
43846;BME280;32485;51.112;13.640;2022-07-23T09:46:42;100239.03;;;25.68;49.09
43846;BME280;32485;51.112;13.640;2022-07-23T09:49:13;100242.00;;;25.57;49.33
43846;BME280;32485;51.112;13.640;2022-07-23T09:51:52;100251.25;;;25.47;49.50
43846;BME280;32485;51.112;13.640;2022-07-23T09:54:32;100243.84;;;25.40;49.81
43846;BME280;32485;51.112;13.640;2022-07-23T09:57:04;100242.19;;;25.46;49.70
43846;BME280;32485;51.112;13.640;2022-07-23T09:59:34;100263.13;;;25.71;49.61
43846;BME280;32485;51.112;13.640;2022-07-23T10:02:03;100258.06;;;25.66;49.55
43846;BME280;32485;51.112;13.640;2022-07-23T10:04:32;100259.81;;;25.80;49.09
43846;BME280;32485;51.112;13.640;2022-07-23T10:07:04;100263.28;;;25.84;48.82
43846;BME280;32485;51.112;13.640;2022-07-23T10:09:35;100271.47;;;25.68;49.46
43846;BME280;32485;51.112;13.640;2022-07-23T10:12:05;100265.78;;;25.55;49.57
43846;BME280;32485;51.112;13.640;2022-07-23T10:14:40;100263.91;;;25.48;50.05
43846;BME280;32485;51.112;13.640;2022-07-23T10:17:08;100252.09;;;25.44;50.09
43846;BME280;32485;51.112;13.640;2022-07-23T10:19:36;100261.59;;;25.43;49.77
43846;BME280;32485;51.112;13.640;2022-07-23T10:22:08;100261.25;;;25.41;50.06
43846;BME280;32485;51.112;13.640;2022-07-23T10:24:52;100273.03;;;25.45;49.96
43846;BME280;32485;51.112;13.640;2022-07-23T10:27:51;100286.63;;;25.59;49.94
43846;BME280;32485;51.112;13.640;2022-07-23T10:30:30;100291.50;;;25.75;49.59
43846;BME280;32485;51.112;13.640;2022-07-23T10:33:22;100294.16;;;25.82;49.13
43846;BME280;32485;51.112;13.640;2022-07-23T10:36:00;100286.50;;;25.90;49.09
43846;BME280;32485;51.112;13.640;2022-07-23T10:38:35;100291.13;;;25.97;49.52
43846;BME280;32485;51.112;13.640;2022-07-23T10:41:05;100292.22;;;26.03;48.88
43846;BME280;32485;51.112;13.640;2022-07-23T10:43:32;100282.03;;;25.96;48.38
43846;BME280;32485;51.112;13.640;2022-07-23T10:46:23;100287.28;;;25.91;49.12
43846;BME280;32485;51.112;13.640;2022-07-23T10:49:24;100296.38;;;25.91;48.47
43846;BME280;32485;51.112;13.640;2022-07-23T10:52:22;100292.81;;;25.91;48.55
43846;BME280;32485;51.112;13.640;2022-07-23T10:54:54;100300.22;;;25.97;48.34
43846;BME280;32485;51.112;13.640;2022-07-23T10:57:22;100298.06;;;26.09;48.34
43846;BME280;32485;51.112;13.640;2022-07-23T11:00:21;100305.88;;;26.14;48.18
43846;BME280;32485;51.112;13.640;2022-07-23T11:02:50;100297.53;;;26.18;48.30
43846;BME280;32485;51.112;13.640;2022-07-23T11:05:20;100308.53;;;26.21;48.37
43846;BME280;32485;51.112;13.640;2022-07-23T11:08:14;100299.19;;;26.11;48.38
43846;BME280;32485;51.112;13.640;2022-07-23T11:10:48;100310.22;;;26.15;48.66
43846;BME280;32485;51.112;13.640;2022-07-23T11:13:47;100300.53;;;26.03;49.90
43846;BME280;32485;51.112;13.640;2022-07-23T11:16:24;100301.41;;;25.96;50.79
43846;BME280;32485;51.112;13.640;2022-07-23T11:19:06;100314.25;;;25.87;50.61
43846;BME280;32485;51.112;13.640;2022-07-23T11:21:50;100317.22;;;25.76;51.21
43846;BME280;32485;51.112;13.640;2022-07-23T11:24:20;100315.28;;;25.73;51.57
43846;BME280;32485;51.112;13.640;2022-07-23T11:27:01;100317.34;;;25.69;51.16
43846;BME280;32485;51.112;13.640;2022-07-23T11:29:45;100322.66;;;25.56;51.29
43846;BME280;32485;51.112;13.640;2022-07-23T11:32:35;100312.34;;;25.33;51.87
43846;BME280;32485;51.112;13.640;2022-07-23T11:35:24;100325.53;;;25.21;52.74
43846;BME280;32485;51.112;13.640;2022-07-23T11:37:52;100327.97;;;25.16;52.72
43846;BME280;32485;51.112;13.640;2022-07-23T11:40:25;100323.38;;;25.05;52.91
43846;BME280;32485;51.112;13.640;2022-07-23T11:42:58;100317.66;;;24.89;52.96
43846;BME280;32485;51.112;13.640;2022-07-23T11:45:32;100318.53;;;24.82;53.55
43846;BME280;32485;51.112;13.640;2022-07-23T11:48:00;100316.78;;;24.65;54.36
43846;BME280;32485;51.112;13.640;2022-07-23T11:50:27;100319.66;;;24.54;55.78
43846;BME280;32485;51.112;13.640;2022-07-23T11:52:55;100329.66;;;24.40;56.23
43846;BME280;32485;51.112;13.640;2022-07-23T11:55:22;100335.69;;;24.28;56.67
43846;BME280;32485;51.112;13.640;2022-07-23T11:57:52;100346.88;;;24.17;57.46
43846;BME280;32485;51.112;13.640;2022-07-23T12:00:24;100344.97;;;24.07;57.84
43846;BME280;32485;51.112;13.640;2022-07-23T12:02:53;100343.88;;;23.97;58.35
43846;BME280;32485;51.112;13.640;2022-07-23T12:05:24;100333.69;;;23.87;58.66
43846;BME280;32485;51.112;13.640;2022-07-23T12:07:54;100339.28;;;23.80;58.72
43846;BME280;32485;51.112;13.640;2022-07-23T12:10:26;100329.34;;;23.86;58.69
43846;BME280;32485;51.112;13.640;2022-07-23T12:12:55;100341.22;;;23.83;58.63
43846;BME280;32485;51.112;13.640;2022-07-23T12:15:25;100326.22;;;23.84;58.75
43846;BME280;32485;51.112;13.640;2022-07-23T12:17:54;100339.09;;;24.05;58.25
43846;BME280;32485;51.112;13.640;2022-07-23T12:20:24;100327.91;;;24.19;58.62
43846;BME280;32485;51.112;13.640;2022-07-23T12:22:55;100343.13;;;24.35;57.29
43846;BME280;32485;51.112;13.640;2022-07-23T12:25:26;100333.13;;;24.48;56.56
43846;BME280;32485;51.112;13.640;2022-07-23T12:28:04;100334.56;;;24.63;56.68
43846;BME280;32485;51.112;13.640;2022-07-23T12:30:37;100335.09;;;24.86;55.76
43846;BME280;32485;51.112;13.640;2022-07-23T12:33:07;100335.66;;;25.01;55.05
43846;BME280;32485;51.112;13.640;2022-07-23T12:35:37;100337.59;;;25.04;54.61
43846;BME280;32485;51.112;13.640;2022-07-23T12:38:08;100340.84;;;24.99;54.94
43846;BME280;32485;51.112;13.640;2022-07-23T12:40:42;100342.25;;;25.10;54.98
43846;BME280;32485;51.112;13.640;2022-07-23T12:43:11;100343.16;;;25.31;54.65
43846;BME280;32485;51.112;13.640;2022-07-23T12:45:45;100326.06;;;25.40;53.93
43846;BME280;32485;51.112;13.640;2022-07-23T12:48:22;100334.25;;;25.47;53.76
43846;BME280;32485;51.112;13.640;2022-07-23T12:51:01;100318.47;;;25.47;53.52
43846;BME280;32485;51.112;13.640;2022-07-23T12:53:32;100324.41;;;25.46;53.05
43846;BME280;32485;51.112;13.640;2022-07-23T12:56:03;100333.53;;;25.43;53.59
43846;BME280;32485;51.112;13.640;2022-07-23T12:58:43;100339.13;;;25.39;53.40